Time;durP1;ratioP1;P1;durP2;ratioP2;P2;SDS_P1;SDS_P2;PMS_P1;PMS_P2;Temp;Humidity;BMP_temperature;BMP_pressure;BME280_temperature;BME280_humidity;BME280_pressure;Samples;Min_cycle;Max_cycle;Signal;HPM_P1;HPM_P2
2022/07/03 00:00:30;;;;;;;8.80;7.03;;;12.40;99.90;;;;;;4394465;28;656730;-67
2022/07/03 00:03:17;;;;;;;12.47;7.83;;;12.40;99.90;;;;;;4417955;28;656462;-64
2022/07/03 00:06:06;;;;;;;12.70;9.03;;;12.40;99.90;;;;;;4412975;28;657652;-65
2022/07/03 00:08:53;;;;;;;16.17;8.73;;;12.30;99.90;;;;;;4388854;28;658616;-65
2022/07/03 00:11:40;;;;;;;12.35;9.35;;;12.30;99.90;;;;;;4398124;28;657673;-66
2022/07/03 00:14:27;;;;;;;12.13;9.67;;;12.40;99.90;;;;;;4418051;28;657417;-65
2022/07/03 00:17:14;;;;;;;19.30;9.17;;;12.50;99.90;;;;;;4412371;28;657397;-66
2022/07/03 00:20:01;;;;;;;11.73;8.93;;;12.60;99.90;;;;;;4394645;28;657512;-65
2022/07/03 00:22:50;;;;;;;14.00;10.83;;;12.60;99.90;;;;;;4410979;28;657733;-65
2022/07/03 00:25:37;;;;;;;17.00;10.10;;;12.70;99.90;;;;;;4384736;28;658759;-64
2022/07/03 00:28:24;;;;;;;14.63;10.33;;;12.70;99.90;;;;;;4411365;28;658852;-65
2022/07/03 00:31:11;;;;;;;15.47;10.80;;;12.70;99.90;;;;;;4391607;28;659074;-64
2022/07/03 00:33:59;;;;;;;15.53;11.00;;;12.80;99.90;;;;;;4414595;28;659253;-67
2022/07/03 00:36:47;;;;;;;15.00;10.57;;;12.70;99.90;;;;;;4391561;28;658875;-65
2022/07/03 00:39:36;;;;;;;17.13;11.07;;;12.60;99.90;;;;;;4403245;28;658630;-65
2022/07/03 00:42:24;;;;;;;15.53;12.00;;;12.70;99.90;;;;;;4396015;28;659051;-64
2022/07/03 00:45:11;;;;;;;17.27;11.33;;;12.80;99.90;;;;;;4394678;28;658888;-65
2022/07/03 00:47:58;;;;;;;18.93;13.33;;;12.80;99.90;;;;;;4411647;28;659028;-67
2022/07/03 00:50:46;;;;;;;24.53;13.77;;;12.90;99.90;;;;;;4390492;28;658716;-65
2022/07/03 00:53:34;;;;;;;20.87;14.97;;;13.10;99.90;;;;;;4413299;28;659721;-65
2022/07/03 00:56:24;;;;;;;20.73;14.40;;;13.30;99.90;;;;;;4394809;28;659633;-65
2022/07/03 00:59:11;;;;;;;20.33;14.80;;;13.50;99.90;;;;;;4394795;28;658699;-65
2022/07/03 01:02:03;;;;;;;25.10;14.67;;;13.60;99.90;;;;;;4413204;28;659284;-68
2022/07/03 01:04:53;;;;;;;19.20;13.90;;;13.80;99.90;;;;;;4375163;28;658306;-67
2022/07/03 01:07:49;;;;;;;19.00;13.47;;;13.90;99.90;;;;;;4391375;28;658787;-65
2022/07/03 01:10:39;;;;;;;17.40;12.73;;;14.00;99.90;;;;;;4388772;28;659422;-65
2022/07/03 01:13:32;;;;;;;15.50;12.47;;;14.10;99.90;;;;;;4394344;28;659726;-65
2022/07/03 01:16:24;;;;;;;16.20;11.90;;;14.20;99.90;;;;;;4388107;28;660470;-66
2022/07/03 01:19:16;;;;;;;14.57;11.63;;;14.30;99.90;;;;;;4397785;28;658580;-65
2022/07/03 01:22:11;;;;;;;14.87;11.50;;;14.30;99.90;;;;;;4391451;28;659570;-65
2022/07/03 01:25:08;;;;;;;13.13;10.73;;;14.30;99.90;;;;;;4387430;28;659338;-65
2022/07/03 01:28:05;;;;;;;13.57;11.50;;;14.40;99.90;;;;;;4373015;28;659696;-65
2022/07/03 01:30:54;;;;;;;15.03;11.13;;;14.50;99.90;;;;;;4373177;28;659664;-65
2022/07/03 01:33:41;;;;;;;12.73;10.67;;;14.60;99.90;;;;;;4397959;28;659146;-65
2022/07/03 01:36:28;;;;;;;14.23;10.97;;;14.60;99.90;;;;;;4426964;28;659578;-65
2022/07/03 01:39:17;;;;;;;12.67;10.70;;;14.60;99.90;;;;;;4395219;28;658947;-66
2022/07/03 01:42:05;;;;;;;14.87;10.70;;;14.70;99.90;;;;;;4411441;28;659119;-65
2022/07/03 01:44:54;;;;;;;14.83;10.57;;;14.70;99.90;;;;;;4387671;28;658684;-65
2022/07/03 01:47:42;;;;;;;13.20;10.27;;;14.80;99.90;;;;;;4386879;28;659058;-65
2022/07/03 01:50:29;;;;;;;14.30;11.00;;;14.80;99.90;;;;;;4412212;28;658626;-65
2022/07/03 01:53:16;;;;;;;16.13;11.17;;;14.80;99.90;;;;;;4390715;28;659017;-65
2022/07/03 01:56:03;;;;;;;17.07;10.87;;;14.90;99.90;;;;;;4413583;28;658969;-65
2022/07/03 01:58:50;;;;;;;15.83;11.13;;;14.80;99.90;;;;;;4394751;28;658595;-66
2022/07/03 02:01:44;;;;;;;14.50;10.93;;;14.90;99.90;;;;;;4412563;28;660043;-65
2022/07/03 02:04:33;;;;;;;16.80;11.53;;;15.00;99.90;;;;;;4366581;28;659689;-65
2022/07/03 02:07:22;;;;;;;17.20;11.90;;;15.00;99.90;;;;;;4391860;28;659632;-65
2022/07/03 02:10:09;;;;;;;17.27;11.30;;;15.00;99.90;;;;;;4409969;28;658668;-64
2022/07/03 02:13:01;;;;;;;14.80;11.33;;;15.00;99.90;;;;;;4386542;28;658918;-65
2022/07/03 02:15:51;;;;;;;16.10;11.77;;;15.00;99.90;;;;;;4385995;28;659239;-65
2022/07/03 02:18:39;;;;;;;13.17;11.37;;;15.10;99.90;;;;;;4388092;28;659919;-65
2022/07/03 02:21:29;;;;;;;14.83;12.10;;;15.10;99.90;;;;;;4393266;28;658806;-65
2022/07/03 02:24:20;;;;;;;14.73;12.07;;;15.10;99.90;;;;;;4392336;28;658742;-66
2022/07/03 02:27:07;;;;;;;15.03;12.17;;;15.10;99.90;;;;;;4394073;28;659943;-65
2022/07/03 02:29:56;;;;;;;15.63;12.87;;;15.20;99.90;;;;;;4409329;28;658873;-65
2022/07/03 02:32:45;;;;;;;19.27;12.00;;;15.20;99.90;;;;;;4380070;28;659432;-65
2022/07/03 02:35:34;;;;;;;19.77;12.17;;;15.20;99.90;;;;;;4387685;28;659922;-66
2022/07/03 02:38:21;;;;;;;14.57;11.75;;;15.20;99.90;;;;;;4375095;28;659242;-66
2022/07/03 02:41:09;;;;;;;14.30;11.33;;;15.20;99.90;;;;;;4407963;28;659132;-66
2022/07/03 02:44:00;;;;;;;18.87;12.00;;;15.20;99.90;;;;;;4388629;28;658720;-66
2022/07/03 02:46:53;;;;;;;14.47;11.57;;;15.20;99.90;;;;;;4383503;28;659634;-66
2022/07/03 02:49:48;;;;;;;13.70;10.73;;;15.30;99.90;;;;;;4364831;28;658953;-66
2022/07/03 02:52:48;;;;;;;13.37;10.87;;;15.30;99.90;;;;;;4375970;28;658199;-67
2022/07/03 02:55:43;;;;;;;16.07;11.23;;;15.30;99.90;;;;;;4370183;28;659448;-68
2022/07/03 02:58:50;;;;;;;13.53;10.93;;;15.30;99.90;;;;;;4378854;28;658699;-67
2022/07/03 03:01:42;;;;;;;14.23;11.33;;;15.40;99.90;;;;;;4358792;28;659340;-66
2022/07/03 03:04:30;;;;;;;13.03;11.13;;;15.40;99.90;;;;;;4385816;28;658394;-66
2022/07/03 03:07:18;;;;;;;14.73;10.70;;;15.40;99.90;;;;;;4386798;28;658975;-66
2022/07/03 03:10:07;;;;;;;15.02;10.55;;;15.40;99.90;;;;;;4390208;28;659009;-66
2022/07/03 03:12:59;;;;;;;13.63;10.57;;;15.50;99.90;;;;;;4406291;28;659078;-65
2022/07/03 03:15:53;;;;;;;11.97;10.17;;;15.50;99.90;;;;;;4389985;28;658760;-66
2022/07/03 03:18:41;;;;;;;17.97;9.83;;;15.60;99.90;;;;;;4364036;28;659417;-66
2022/07/03 03:21:28;;;;;;;18.80;10.60;;;15.60;99.90;;;;;;4409738;28;658066;-65
2022/07/03 03:24:16;;;;;;;14.43;10.47;;;15.70;99.90;;;;;;4388002;28;659505;-66
2022/07/03 03:27:05;;;;;;;15.93;10.03;;;15.60;99.90;;;;;;4409451;28;660733;-66
2022/07/03 03:29:52;;;;;;;12.10;9.67;;;15.70;99.90;;;;;;4382720;28;660806;-66
2022/07/03 03:32:39;;;;;;;13.40;9.60;;;15.70;99.90;;;;;;4409725;28;659160;-66
2022/07/03 03:35:26;;;;;;;12.90;9.43;;;15.70;99.90;;;;;;4388447;28;658887;-66
2022/07/03 03:38:13;;;;;;;12.80;9.60;;;15.60;99.90;;;;;;4408290;28;659658;-66
2022/07/03 03:41:00;;;;;;;11.40;9.70;;;15.60;99.90;;;;;;4387883;28;658971;-67
2022/07/03 03:43:49;;;;;;;11.43;9.60;;;15.50;99.90;;;;;;4404468;28;659753;-66
2022/07/03 03:46:36;;;;;;;13.33;10.30;;;15.40;99.90;;;;;;4390520;28;659231;-66
2022/07/03 03:49:23;;;;;;;12.03;10.17;;;15.50;99.90;;;;;;4407185;28;661986;-66
2022/07/03 03:52:10;;;;;;;13.97;10.53;;;15.50;99.90;;;;;;4387775;28;659829;-68
2022/07/03 03:54:57;;;;;;;12.03;10.30;;;15.50;99.90;;;;;;4408923;28;660045;-66
2022/07/03 03:57:44;;;;;;;19.37;10.37;;;15.50;99.90;;;;;;4406880;28;660147;-66
2022/07/03 04:00:33;;;;;;;13.87;10.73;;;15.60;99.90;;;;;;4389707;28;660556;-66
2022/07/03 04:03:20;;;;;;;17.93;11.30;;;15.60;99.90;;;;;;4390471;28;660538;-67
2022/07/03 04:06:07;;;;;;;15.83;10.63;;;15.70;99.90;;;;;;4412173;28;660064;-66
2022/07/03 04:08:54;;;;;;;13.00;10.60;;;15.70;99.90;;;;;;4404980;28;659548;-66
2022/07/03 04:11:41;;;;;;;23.47;11.43;;;15.80;99.90;;;;;;4380509;28;659607;-66
2022/07/03 04:14:28;;;;;;;17.00;10.53;;;15.90;99.90;;;;;;4407520;28;659739;-66
2022/07/03 04:17:17;;;;;;;14.80;11.37;;;16.10;99.90;;;;;;4388005;28;659852;-66
2022/07/03 04:20:05;;;;;;;13.90;10.93;;;16.20;99.90;;;;;;4404998;28;660283;-66
2022/07/03 04:22:52;;;;;;;14.53;11.20;;;16.40;99.90;;;;;;4380532;28;660609;-66
2022/07/03 04:25:39;;;;;;;16.23;11.43;;;16.60;99.90;;;;;;4402954;28;659448;-66
2022/07/03 04:28:27;;;;;;;16.07;10.80;;;16.90;99.90;;;;;;4388549;28;660935;-65
2022/07/03 04:31:14;;;;;;;13.97;11.13;;;16.90;99.90;;;;;;4411048;28;659890;-65
2022/07/03 04:34:02;;;;;;;15.23;10.77;;;17.00;99.90;;;;;;4384649;28;659644;-66
2022/07/03 04:36:50;;;;;;;15.93;10.83;;;17.00;99.90;;;;;;4403195;28;660005;-65
2022/07/03 04:39:37;;;;;;;14.03;10.00;;;17.00;99.90;;;;;;4384329;28;661047;-66
2022/07/03 04:42:24;;;;;;;14.37;10.30;;;17.00;99.90;;;;;;4407379;28;660317;-65
2022/07/03 04:45:11;;;;;;;11.97;9.60;;;17.10;99.90;;;;;;4387132;28;659678;-66
2022/07/03 04:47:58;;;;;;;10.60;9.43;;;17.20;99.90;;;;;;4409930;28;659357;-66
2022/07/03 04:50:47;;;;;;;12.30;9.33;;;17.30;99.90;;;;;;4388672;28;658630;-66
2022/07/03 04:53:34;;;;;;;12.87;10.10;;;17.40;99.90;;;;;;4409404;28;659474;-65
2022/07/03 04:56:21;;;;;;;13.07;9.53;;;17.40;99.90;;;;;;4391445;28;660193;-65
2022/07/03 04:59:08;;;;;;;11.53;9.30;;;17.40;99.90;;;;;;4411869;28;658917;-65
2022/07/03 05:01:55;;;;;;;10.13;8.97;;;17.40;99.90;;;;;;4390126;28;658591;-66
2022/07/03 05:04:42;;;;;;;11.30;8.70;;;17.50;99.90;;;;;;4411053;28;658857;-65
2022/07/03 05:07:31;;;;;;;12.83;8.77;;;17.60;99.90;;;;;;4412143;28;659277;-65
2022/07/03 05:10:18;;;;;;;11.40;8.43;;;17.70;99.90;;;;;;4386843;28;660227;-66
2022/07/03 05:13:05;;;;;;;17.13;8.53;;;17.80;99.90;;;;;;4400480;28;658480;-67
2022/07/03 05:15:52;;;;;;;11.63;8.60;;;17.80;99.90;;;;;;4412404;28;658558;-65
2022/07/03 05:18:39;;;;;;;10.57;7.90;;;18.00;99.90;;;;;;4411293;28;659090;-65
2022/07/03 05:21:26;;;;;;;16.80;8.63;;;18.10;99.90;;;;;;4392307;28;659119;-65
2022/07/03 05:24:15;;;;;;;10.83;8.03;;;17.90;99.90;;;;;;4410022;28;659180;-66
2022/07/03 05:27:02;;;;;;;10.60;7.90;;;18.00;99.90;;;;;;4385603;28;659351;-65
2022/07/03 05:29:50;;;;;;;10.83;7.63;;;18.20;99.90;;;;;;4407480;28;658742;-66
2022/07/03 05:32:37;;;;;;;9.63;7.57;;;18.30;99.90;;;;;;4413245;28;659332;-65
2022/07/03 05:35:24;;;;;;;9.00;6.83;;;18.40;99.90;;;;;;4411840;28;658912;-65
2022/07/03 05:38:12;;;;;;;9.43;7.30;;;18.50;99.90;;;;;;4392485;28;658053;-65
2022/07/03 05:41:00;;;;;;;8.97;5.93;;;18.60;99.90;;;;;;4407563;28;657954;-66
2022/07/03 05:43:47;;;;;;;8.53;6.73;;;18.70;99.90;;;;;;4385565;28;658145;-65
2022/07/03 05:46:34;;;;;;;10.50;6.77;;;18.60;99.90;;;;;;4412431;28;657040;-65
2022/07/03 05:49:21;;;;;;;8.73;7.20;;;18.70;99.90;;;;;;4390157;28;659018;-65
2022/07/03 05:52:09;;;;;;;9.53;7.03;;;18.70;99.90;;;;;;4411225;28;657467;-65
2022/07/03 05:54:56;;;;;;;7.30;6.50;;;18.80;99.90;;;;;;4389655;28;657692;-66
2022/07/03 05:57:44;;;;;;;8.40;6.50;;;19.00;99.90;;;;;;4411339;28;659138;-65
2022/07/03 06:00:31;;;;;;;6.73;6.00;;;19.30;99.90;;;;;;4391120;28;657545;-65
2022/07/03 06:03:18;;;;;;;7.57;5.93;;;19.60;99.90;;;;;;4410450;28;658010;-66
2022/07/03 06:06:05;;;;;;;7.83;5.63;;;19.70;99.90;;;;;;4392186;28;658083;-66
2022/07/03 06:08:53;;;;;;;8.27;5.00;;;19.80;99.90;;;;;;4406216;28;658796;-64
2022/07/03 06:11:40;;;;;;;6.50;5.27;;;19.80;99.90;;;;;;4404028;28;657930;-66
2022/07/03 06:14:29;;;;;;;7.28;5.50;;;19.80;99.90;;;;;;4416859;28;657597;-65
2022/07/03 06:17:16;;;;;;;10.30;5.73;;;19.90;99.90;;;;;;4389868;28;657693;-65
2022/07/03 06:20:03;;;;;;;6.50;4.80;;;20.20;99.90;;;;;;4426977;28;658530;-64
2022/07/03 06:22:50;;;;;;;6.93;5.37;;;20.30;99.90;;;;;;4399087;28;657824;-65
2022/07/03 06:25:37;;;;;;;6.83;5.73;;;20.10;99.90;;;;;;4416582;28;657734;-65
2022/07/03 06:28:24;;;;;;;6.60;5.50;;;20.00;99.90;;;;;;4410825;28;657965;-65
2022/07/03 06:31:13;;;;;;;7.60;5.80;;;20.10;99.90;;;;;;4388413;28;658373;-64
2022/07/03 06:34:01;;;;;;;7.00;5.90;;;20.10;99.90;;;;;;4389289;28;658038;-64
2022/07/03 06:36:48;;;;;;;7.43;5.73;;;20.00;99.90;;;;;;4407028;28;657898;-65
2022/07/03 06:39:35;;;;;;;7.37;5.30;;;19.90;99.90;;;;;;4392965;28;658624;-65
2022/07/03 06:42:22;;;;;;;8.23;5.43;;;20.00;99.90;;;;;;4414924;28;657897;-64
2022/07/03 06:45:10;;;;;;;6.57;5.43;;;20.00;99.90;;;;;;4411267;28;657821;-66
2022/07/03 06:47:58;;;;;;;5.30;4.80;;;20.20;99.90;;;;;;4386409;28;657681;-64
2022/07/03 06:50:46;;;;;;;5.53;4.67;;;20.50;99.90;;;;;;4388600;28;657597;-65
2022/07/03 06:53:33;;;;;;;9.67;4.83;;;20.90;99.90;;;;;;4411275;28;658120;-64
2022/07/03 06:56:20;;;;;;;5.33;4.50;;;20.80;99.90;;;;;;4390849;28;659107;-66
2022/07/03 06:59:07;;;;;;;5.97;4.17;;;21.10;99.90;;;;;;4409991;28;658510;-67
2022/07/03 07:01:55;;;;;;;6.43;4.20;;;21.30;99.90;;;;;;4407839;28;657439;-66
2022/07/03 07:04:43;;;;;;;9.70;4.07;;;21.30;99.90;;;;;;4415713;28;657840;-65
2022/07/03 07:07:31;;;;;;;5.33;4.00;;;21.30;99.90;;;;;;4391888;28;657641;-65
2022/07/03 07:10:18;;;;;;;5.40;3.73;;;21.60;99.90;;;;;;4412400;28;657936;-65
2022/07/03 07:13:05;;;;;;;5.00;3.60;;;21.70;99.90;;;;;;4390574;28;658826;-66
2022/07/03 07:15:52;;;;;;;4.40;4.00;;;21.70;99.90;;;;;;4412203;28;657212;-65
2022/07/03 07:18:41;;;;;;;5.33;4.17;;;21.80;99.90;;;;;;4410362;28;657555;-65
2022/07/03 07:21:29;;;;;;;7.47;4.10;;;21.80;99.90;;;;;;4386620;28;659503;-65
2022/07/03 07:24:16;;;;;;;5.63;4.50;;;21.80;99.90;;;;;;4391346;28;658014;-64
2022/07/03 07:27:04;;;;;;;5.90;4.30;;;21.80;99.90;;;;;;4408975;28;658282;-64
2022/07/03 07:29:51;;;;;;;5.17;4.27;;;21.80;99.90;;;;;;4387079;28;657312;-64
2022/07/03 07:32:38;;;;;;;5.10;4.60;;;22.00;99.90;;;;;;4410565;28;658650;-64
2022/07/03 07:35:25;;;;;;;5.47;4.60;;;22.10;99.90;;;;;;4391233;28;658023;-64
2022/07/03 07:38:14;;;;;;;5.90;5.00;;;22.30;99.90;;;;;;4408957;28;659204;-64
2022/07/03 07:41:01;;;;;;;6.37;5.30;;;22.50;99.90;;;;;;4390326;28;657589;-64
2022/07/03 07:43:48;;;;;;;7.53;6.23;;;22.70;99.90;;;;;;4411527;28;658886;-63
2022/07/03 07:46:35;;;;;;;9.27;8.27;;;22.40;99.90;;;;;;4391457;28;658411;-65
2022/07/03 07:49:22;;;;;;;10.93;9.70;;;22.80;99.90;;;;;;4409871;28;658127;-64
2022/07/03 07:52:10;;;;;;;12.23;7.80;;;23.00;99.90;;;;;;4405375;28;658647;-65
2022/07/03 07:54:59;;;;;;;12.23;6.43;;;22.80;99.90;;;;;;4410816;28;658844;-64
2022/07/03 07:57:46;;;;;;;7.60;6.37;;;23.20;99.90;;;;;;4390985;28;658508;-64
2022/07/03 08:00:33;;;;;;;10.67;7.77;;;23.40;99.90;;;;;;4411355;28;658593;-64
2022/07/03 08:06:25;;;;;;;7.50;6.77;;;22.60;99.90;;;;;;4376961;28;660740;-65
2022/07/03 08:09:12;;;;;;;10.47;7.03;;;23.00;99.90;;;;;;4414016;28;658018;-64
2022/07/03 08:12:01;;;;;;;11.47;7.10;;;22.70;99.90;;;;;;4406992;28;658613;-65
2022/07/03 08:14:48;;;;;;;7.77;6.97;;;22.60;99.90;;;;;;4382748;28;660888;-64
2022/07/03 08:17:35;;;;;;;9.77;6.37;;;23.40;99.90;;;;;;4396184;28;657477;-66
2022/07/03 08:20:22;;;;;;;7.20;5.90;;;24.10;99.90;;;;;;4413970;28;658234;-64
2022/07/03 08:23:09;;;;;;;6.47;5.70;;;24.00;99.00;;;;;;4411854;28;658139;-64
2022/07/03 08:25:56;;;;;;;7.00;6.30;;;23.60;99.90;;;;;;4392299;28;657681;-64
2022/07/03 08:28:45;;;;;;;11.37;5.17;;;24.10;99.90;;;;;;4414376;28;657687;-64
2022/07/03 08:31:32;;;;;;;7.30;5.40;;;24.10;99.10;;;;;;4389889;28;660073;-64
2022/07/03 08:34:19;;;;;;;10.53;5.40;;;23.90;96.80;;;;;;4412652;28;657366;-64
2022/07/03 08:37:06;;;;;;;6.90;5.87;;;23.80;98.60;;;;;;4391746;28;659048;-64
2022/07/03 08:39:53;;;;;;;7.93;5.28;;;23.40;97.90;;;;;;4382458;28;658584;-64
2022/07/03 08:42:46;;;;;;;7.67;5.70;;;23.60;98.90;;;;;;4393591;28;657857;-64
2022/07/03 08:45:34;;;;;;;7.30;4.93;;;23.50;99.90;;;;;;4391346;28;657765;-64
2022/07/03 08:48:22;;;;;;;7.53;5.00;;;23.20;99.90;;;;;;4395622;28;659575;-64
2022/07/03 08:51:09;;;;;;;7.05;5.30;;;23.10;99.90;;;;;;4415092;28;658556;-64
2022/07/03 08:53:56;;;;;;;10.03;5.13;;;23.60;99.90;;;;;;4397106;28;658008;-64
2022/07/03 08:56:43;;;;;;;7.33;4.90;;;23.80;98.90;;;;;;4408122;28;658511;-64
2022/07/03 08:59:32;;;;;;;8.73;5.15;;;23.60;97.10;;;;;;4393763;28;657606;-64
2022/07/03 09:02:21;;;;;;;6.00;4.63;;;23.60;98.50;;;;;;4405430;28;657755;-65
2022/07/03 09:05:09;;;;;;;8.33;5.63;;;23.30;99.30;;;;;;4415031;28;658074;-64
2022/07/03 09:07:56;;;;;;;5.97;5.00;;;23.20;99.90;;;;;;4392469;28;657511;-64
2022/07/03 09:10:44;;;;;;;7.07;4.90;;;23.20;99.70;;;;;;4409931;28;657369;-64
2022/07/03 09:13:32;;;;;;;7.97;4.77;;;22.90;99.90;;;;;;4393669;28;657497;-64
2022/07/03 09:16:19;;;;;;;10.97;4.93;;;23.10;99.90;;;;;;4412396;28;657755;-64
2022/07/03 09:19:07;;;;;;;9.17;5.23;;;23.60;99.90;;;;;;4390228;28;659476;-64
2022/07/03 09:21:54;;;;;;;5.93;4.95;;;24.70;96.80;;;;;;4412699;28;657577;-64
2022/07/03 09:24:41;;;;;;;7.43;4.95;;;25.20;94.30;;;;;;4389360;28;658552;-64
2022/07/03 09:27:28;;;;;;;5.85;4.50;;;25.70;93.70;;;;;;4412077;28;658139;-64
2022/07/03 09:30:16;;;;;;;6.13;4.38;;;26.10;91.60;;;;;;4393571;28;657437;-64
2022/07/03 09:33:03;;;;;;;5.97;4.18;;;26.30;91.90;;;;;;4401064;28;658752;-64
2022/07/03 09:35:55;;;;;;;5.47;4.47;;;26.70;86.80;;;;;;4383403;28;657740;-65
2022/07/03 09:38:44;;;;;;;6.88;4.57;;;26.80;90.10;;;;;;4374858;28;658784;-63
2022/07/03 09:41:31;;;;;;;4.78;4.20;;;26.60;89.40;;;;;;4375682;28;657447;-64
2022/07/03 09:44:29;;;;;;;23.10;4.53;;;27.10;83.00;;;;;;4396234;28;658213;-63
2022/07/03 09:47:18;;;;;;;7.47;4.13;;;27.30;84.40;;;;;;4378842;28;658436;-63
2022/07/03 09:50:07;;;;;;;5.53;3.95;;;27.50;78.60;;;;;;4395276;28;657661;-64
2022/07/03 09:52:56;;;;;;;7.25;4.40;;;27.30;81.10;;;;;;4394759;28;657661;-63
2022/07/03 09:55:43;;;;;;;5.47;4.32;;;26.30;73.70;;;;;;4376687;28;658398;-63
2022/07/03 09:58:30;;;;;;;5.28;4.55;;;26.00;81.90;;;;;;4379342;28;657489;-64
2022/07/03 10:01:18;;;;;;;5.07;4.28;;;26.70;81.20;;;;;;4401995;28;657072;-63
2022/07/03 10:04:13;;;;;;;5.43;4.25;;;27.30;79.30;;;;;;4384366;28;657623;-64
2022/07/03 10:07:01;;;;;;;5.40;4.32;;;26.70;78.30;;;;;;4365500;28;658083;-65
2022/07/03 10:09:49;;;;;;;4.90;4.40;;;26.30;82.00;;;;;;4392468;28;657492;-63
2022/07/03 10:12:36;;;;;;;5.00;4.03;;;25.50;82.30;;;;;;4372279;28;658253;-63
2022/07/03 10:15:24;;;;;;;6.65;4.50;;;26.00;82.40;;;;;;4393282;28;658180;-64
2022/07/03 10:18:12;;;;;;;10.82;4.93;;;25.90;81.30;;;;;;4378415;28;657594;-63
2022/07/03 10:20:59;;;;;;;6.53;4.80;;;26.60;83.20;;;;;;4395770;28;658755;-63
2022/07/03 10:23:46;;;;;;;6.07;4.22;;;27.70;78.50;;;;;;4378976;28;657552;-63
2022/07/03 10:26:35;;;;;;;5.43;4.50;;;28.30;73.40;;;;;;4396661;28;658725;-63
2022/07/03 10:29:23;;;;;;;4.93;4.43;;;27.90;73.50;;;;;;4375000;28;658551;-63
2022/07/03 10:32:10;;;;;;;5.53;4.38;;;27.80;72.70;;;;;;4403686;28;657459;-65
2022/07/03 10:34:57;;;;;;;6.47;4.38;;;28.10;72.50;;;;;;4418044;28;657984;-63
2022/07/03 10:37:52;;;;;;;11.52;4.25;;;27.70;72.90;;;;;;4413791;28;657541;-63
2022/07/03 10:46:54;;;;;;;6.40;3.88;;;28.50;69.30;;;;;;4374083;28;657780;-64
2022/07/03 10:50:00;;;;;;;6.03;4.05;;;28.90;68.80;;;;;;4378529;28;658872;-63
2022/07/03 10:52:47;;;;;;;5.22;4.07;;;29.30;70.00;;;;;;4351777;28;657826;-63
2022/07/03 10:55:35;;;;;;;7.30;4.07;;;29.30;66.10;;;;;;4394449;28;657527;-65
2022/07/03 10:58:22;;;;;;;7.88;4.47;;;29.20;69.20;;;;;;4401318;28;658065;-63
2022/07/03 11:01:11;;;;;;;6.15;4.15;;;29.00;71.00;;;;;;4397227;28;657225;-63
2022/07/03 11:04:00;;;;;;;4.78;4.28;;;29.60;68.60;;;;;;4374317;28;658614;-63
2022/07/03 11:07:11;;;;;;;4.72;3.63;;;29.70;63.00;;;;;;4374383;28;658468;-63
2022/07/03 11:10:31;;;;;;;7.72;4.20;;;29.60;66.60;;;;;;4374503;28;657813;-63
2022/07/03 11:13:22;;;;;;;6.75;4.35;;;28.00;64.30;;;;;;4374385;28;657642;-63
2022/07/03 11:16:18;;;;;;;5.72;4.03;;;27.40;69.60;;;;;;4374342;28;657489;-63
2022/07/03 11:19:05;;;;;;;4.82;4.32;;;28.20;71.20;;;;;;4368491;28;657826;-64
2022/07/03 11:21:52;;;;;;;6.88;4.47;;;29.50;66.20;;;;;;4400901;28;658804;-64
2022/07/03 11:24:40;;;;;;;5.15;4.20;;;29.10;65.90;;;;;;4396873;28;657598;-63
2022/07/03 11:27:29;;;;;;;4.80;4.40;;;29.30;64.50;;;;;;4374302;28;658755;-63
2022/07/03 11:30:17;;;;;;;7.20;4.43;;;29.70;61.60;;;;;;4378207;28;658463;-64
2022/07/03 11:33:05;;;;;;;4.68;4.10;;;29.30;63.20;;;;;;4396701;28;657606;-63
2022/07/03 11:35:53;;;;;;;4.87;4.40;;;29.40;65.10;;;;;;4373975;28;658394;-63
2022/07/03 11:38:40;;;;;;;7.13;4.15;;;29.80;65.40;;;;;;4377996;28;657624;-63
2022/07/03 11:41:29;;;;;;;7.85;4.40;;;30.20;61.80;;;;;;4396754;28;658503;-63
2022/07/03 11:44:18;;;;;;;7.20;4.20;;;29.10;63.00;;;;;;4377931;28;657885;-63
2022/07/03 11:47:05;;;;;;;5.63;3.97;;;29.10;64.80;;;;;;4422225;28;658034;-64
2022/07/03 11:49:54;;;;;;;5.03;4.43;;;29.40;62.50;;;;;;4434815;28;658372;-63
2022/07/03 11:52:41;;;;;;;5.70;4.05;;;29.20;62.40;;;;;;4411777;28;657901;-63
2022/07/03 11:55:28;;;;;;;7.45;4.35;;;29.00;63.60;;;;;;4432052;28;659026;-63
2022/07/03 11:58:15;;;;;;;5.85;4.10;;;29.60;65.10;;;;;;4416995;28;657664;-65
2022/07/03 12:01:02;;;;;;;5.68;4.30;;;29.40;64.20;;;;;;4434246;28;658269;-64
2022/07/03 12:03:49;;;;;;;4.50;4.05;;;29.60;62.10;;;;;;4433967;28;657860;-63
2022/07/03 12:06:39;;;;;;;4.68;4.20;;;29.70;62.60;;;;;;4415041;28;659429;-63
2022/07/03 12:09:28;;;;;;;8.18;4.43;;;29.60;61.10;;;;;;4415056;28;658077;-64
2022/07/03 12:12:15;;;;;;;9.63;4.70;;;29.70;63.10;;;;;;4414907;28;658247;-64
2022/07/03 12:15:02;;;;;;;9.25;4.50;;;29.50;61.50;;;;;;4438190;28;658048;-63
2022/07/03 12:17:49;;;;;;;9.82;4.57;;;28.60;59.90;;;;;;4433763;28;657825;-63
2022/07/03 12:20:37;;;;;;;4.78;4.28;;;28.50;63.40;;;;;;4415048;28;658537;-63
2022/07/03 12:23:25;;;;;;;8.00;4.35;;;29.00;63.70;;;;;;4433701;28;658375;-63
2022/07/03 12:26:12;;;;;;;5.63;4.47;;;29.50;63.00;;;;;;4414825;28;659420;-63
2022/07/03 12:29:00;;;;;;;6.45;4.50;;;29.70;62.50;;;;;;4433819;28;657743;-63
2022/07/03 12:31:48;;;;;;;5.17;4.20;;;30.10;61.90;;;;;;4410474;28;658467;-63
2022/07/03 12:34:35;;;;;;;4.40;4.00;;;30.30;58.40;;;;;;4414720;28;657493;-63
2022/07/03 12:37:32;;;;;;;4.15;3.72;;;30.40;58.00;;;;;;4433761;28;658860;-63
2022/07/03 12:40:21;;;;;;;5.07;4.27;;;29.60;57.20;;;;;;4410835;28;657699;-63
2022/07/03 12:43:08;;;;;;;4.50;4.10;;;29.70;59.80;;;;;;4410433;28;659333;-63
2022/07/03 12:45:55;;;;;;;5.22;4.57;;;29.40;59.70;;;;;;4408635;28;657462;-66
2022/07/03 12:48:46;;;;;;;6.47;4.17;;;29.00;59.80;;;;;;4404698;28;658392;-62
2022/07/03 12:51:40;;;;;;;6.68;4.00;;;28.60;60.80;;;;;;4377504;28;658442;-62
2022/07/03 12:54:33;;;;;;;7.55;4.80;;;28.00;59.80;;;;;;4354850;28;658593;-62
2022/07/03 13:00:27;;;;;;;7.75;4.68;;;28.50;61.20;;;;;;4354451;28;657689;-63
2022/07/03 13:03:27;;;;;;;6.22;4.35;;;28.40;58.90;;;;;;4397521;28;657974;-63
2022/07/03 13:06:14;;;;;;;4.65;4.25;;;28.60;61.00;;;;;;4376190;28;658877;-63
2022/07/03 13:09:02;;;;;;;6.63;4.60;;;28.80;59.00;;;;;;4380931;28;659272;-63
2022/07/03 13:11:49;;;;;;;5.72;4.43;;;29.50;59.10;;;;;;4403746;28;656701;-64
2022/07/03 13:14:38;;;;;;;5.25;4.50;;;29.50;56.50;;;;;;4380845;28;659523;-63
2022/07/03 13:17:40;;;;;;;5.50;4.53;;;29.40;57.80;;;;;;4380524;28;658126;-64
2022/07/03 13:20:28;;;;;;;4.85;3.85;;;29.30;60.60;;;;;;4380529;28;657348;-63
2022/07/03 13:23:15;;;;;;;5.63;4.13;;;29.80;56.20;;;;;;4389433;28;657381;-64
2022/07/03 13:26:02;;;;;;;5.30;4.55;;;29.00;57.00;;;;;;4403487;28;659008;-63
2022/07/03 13:28:49;;;;;;;6.95;4.63;;;28.70;57.60;;;;;;4399372;28;657420;-63
2022/07/03 13:31:38;;;;;;;7.07;4.28;;;28.80;58.50;;;;;;4387644;28;657853;-62
2022/07/03 13:34:25;;;;;;;13.10;4.30;;;29.10;56.40;;;;;;4400442;28;657691;-64
2022/07/03 13:37:12;;;;;;;5.45;4.22;;;29.80;58.30;;;;;;4418046;28;659260;-62
2022/07/03 13:39:59;;;;;;;4.72;4.22;;;30.00;53.60;;;;;;4415334;28;657785;-63
2022/07/03 13:42:46;;;;;;;4.72;4.32;;;29.50;55.40;;;;;;4396106;28;658862;-63
2022/07/03 13:45:34;;;;;;;5.88;4.88;;;29.30;57.70;;;;;;4420974;28;658308;-63
2022/07/03 13:48:22;;;;;;;6.40;4.88;;;29.30;57.60;;;;;;4413376;28;657422;-63
2022/07/03 13:51:09;;;;;;;6.50;4.22;;;29.50;57.10;;;;;;4431892;28;657855;-63
2022/07/03 13:53:56;;;;;;;5.50;4.95;;;29.10;57.50;;;;;;4411793;28;658533;-63
2022/07/03 13:56:43;;;;;;;5.88;4.85;;;27.60;58.30;;;;;;4432370;28;658101;-63
2022/07/03 13:59:31;;;;;;;4.93;4.32;;;26.90;60.60;;;;;;4412893;28;657770;-63
2022/07/03 14:02:18;;;;;;;5.00;4.50;;;26.80;62.50;;;;;;4432190;28;658646;-63
2022/07/03 14:05:07;;;;;;;5.05;4.53;;;26.90;62.10;;;;;;4412909;28;658144;-63
2022/07/03 14:07:55;;;;;;;5.53;4.68;;;27.50;62.70;;;;;;4430403;28;657886;-64
2022/07/03 14:10:42;;;;;;;5.50;4.70;;;28.10;60.80;;;;;;4431750;28;657981;-62
2022/07/03 14:13:30;;;;;;;5.40;4.88;;;28.20;59.80;;;;;;4428342;28;657994;-63
2022/07/03 14:16:17;;;;;;;5.22;4.70;;;28.50;59.40;;;;;;4435642;28;658851;-63
2022/07/03 14:19:05;;;;;;;6.43;4.72;;;28.40;57.50;;;;;;4430736;28;657713;-63
2022/07/03 14:21:54;;;;;;;5.25;4.75;;;27.20;58.70;;;;;;4406251;28;658536;-62
2022/07/03 14:24:41;;;;;;;5.38;4.88;;;26.90;61.20;;;;;;4412996;28;658855;-63
2022/07/03 14:33:37;;;;;;;6.35;4.07;;;28.80;57.10;;;;;;4385907;28;659098;-63
2022/07/03 14:36:25;;;;;;;6.93;4.30;;;29.20;55.20;;;;;;4431406;28;657721;-63